Main page
METAR-TAF:

METAR-TAF

Airports :

Khartoum International Airport

Khartoum, Sudan

latitude: 15-36N, longitude: 032-33E, elevation: 382 m

Current weather observation

The report was made 20 minutes ago, at 02:30 UTC
Wind 10 kt from the North
Temperature 18°C
Humidity 16%
Pressure 1014 hPa
Visibility 10 km or more
no clouds below 1500 m and no cumulonimbus

METAR: HSSS 210230Z 36010KT CAVOK 18/M08 Q1014 NOSIG

Time: 04:50 (02:50 UTC)

Forecast

The report was made 3 hours and 50 minutes ago, at 23:00 UTC
Forecast valid from 21 at 00 UTC to 22 at 06 UTC
Wind 8 kt from the North/Northwest with gusts up to 18 kt
Visibility 10 km or more
no clouds below 1500 m and no cumulonimbus

TAF: HSSS 202300Z 2100/2206 34008G18KT CAVOK

Weather observations and forecasts of more than 4000 airports (METAR and TAF reports).

The available stations are represented by yellow and red dots on the map.

Hover mouse over dot to see the name of the station.

Then click to see weather observations and forecasts.

To change the map : click on the green buttons with a black cross to zoom in, on the green button with a dash to zoom out, or on the green arrows for adjacent maps.


METAR-TAF: